Time;durP1;ratioP1;P1;durP2;ratioP2;P2;SDS_P1;SDS_P2;PMS_P1;PMS_P2;Temp;Humidity;BMP_temperature;BMP_pressure;BME280_temperature;BME280_humidity;BME280_pressure;Samples;Min_cycle;Max_cycle;Signal;HPM_P1;HPM_P2
2023/09/10 00:02:08;;;;;;;49.20;44.60;;;;;;;16.50;100.00;99278.67;109587;1250;58944;-69
2023/09/10 00:04:35;;;;;;;50.60;45.80;;;;;;;16.49;100.00;99280.75;109604;1251;59019;-69
2023/09/10 00:07:02;;;;;;;49.50;44.60;;;;;;;16.50;100.00;99278.71;109560;1251;65860;-69
2023/09/10 00:09:28;;;;;;;50.30;45.50;;;;;;;16.49;100.00;99280.72;109624;1251;59027;-69
2023/09/10 00:11:55;;;;;;;52.80;47.70;;;;;;;16.48;100.00;99282.21;109552;1250;64132;-69
2023/09/10 00:14:21;;;;;;;52.00;46.70;;;;;;;16.46;100.00;99282.01;109603;1250;58936;-69
2023/09/10 00:16:48;;;;;;;52.10;47.10;;;;;;;16.45;100.00;99277.95;109580;1250;60421;-69
2023/09/10 00:19:15;;;;;;;53.00;47.90;;;;;;;16.44;100.00;99275.56;109601;1251;59653;-69
2023/09/10 00:21:42;;;;;;;52.70;47.60;;;;;;;16.43;100.00;99277.83;109600;1252;59056;-69
2023/09/10 00:24:11;;;;;;;54.60;48.90;;;;;;;16.41;100.00;99273.35;109267;1250;63911;-70
2023/09/10 00:26:38;;;;;;;56.30;50.60;;;;;;;16.41;100.00;99274.45;109565;1250;59031;-69
2023/09/10 00:29:04;;;;;;;57.90;52.20;;;;;;;16.38;100.00;99274.30;109310;1251;59085;-69
2023/09/10 00:31:34;;;;;;;59.20;53.20;;;;;;;16.37;100.00;99271.90;109529;1251;64840;-69
2023/09/10 00:34:01;;;;;;;58.80;53.10;;;;;;;16.36;100.00;99269.63;109555;1250;61229;-69
2023/09/10 00:36:28;;;;;;;57.90;52.40;;;;;;;16.35;100.00;99270.23;109594;1251;63746;-69
2023/09/10 00:38:55;;;;;;;57.20;51.40;;;;;;;16.35;100.00;99269.34;109546;1251;59003;-69
2023/09/10 00:41:22;;;;;;;58.70;53.00;;;;;;;16.34;100.00;99268.21;109613;1250;59038;-69
2023/09/10 00:43:49;;;;;;;55.80;49.90;;;;;;;16.32;100.00;99271.98;109614;1250;66036;-69
2023/09/10 00:46:15;;;;;;;55.60;50.10;;;;;;;16.29;100.00;99272.02;109581;1251;58938;-69
2023/09/10 00:48:42;;;;;;;52.80;47.80;;;;;;;16.25;100.00;99271.27;109627;1251;64114;-70
2023/09/10 00:51:09;;;;;;;55.90;50.30;;;;;;;16.22;100.00;99277.08;109633;1251;59333;-69
2023/09/10 00:53:36;;;;;;;54.20;48.60;;;;;;;16.19;100.00;99278.10;109597;1251;59207;-69
2023/09/10 00:56:03;;;;;;;56.10;50.60;;;;;;;16.16;100.00;99279.21;109586;1251;66021;-69
2023/09/10 00:58:29;;;;;;;55.60;49.90;;;;;;;16.13;100.00;99279.52;109139;1251;60279;-69
2023/09/10 01:00:56;;;;;;;54.00;48.60;;;;;;;16.09;100.00;99277.49;109570;1250;64025;-68
2023/09/10 01:03:24;;;;;;;54.70;49.30;;;;;;;16.06;100.00;99275.84;109603;1251;59020;-69
2023/09/10 01:05:51;;;;;;;53.00;47.60;;;;;;;16.02;100.00;99273.80;109611;1250;59380;-68
2023/09/10 01:08:18;;;;;;;53.70;48.50;;;;;;;15.98;100.00;99270.73;109573;1251;64795;-68
2023/09/10 01:11:12;;;;;;;52.40;47.30;;;;;;;15.94;100.00;99270.68;109614;1251;58924;-68
2023/09/10 01:13:52;;;;;;;51.80;46.70;;;;;;;15.90;100.00;99264.59;109590;1251;64048;-69
2023/09/10 01:16:28;;;;;;;54.20;48.70;;;;;;;15.88;100.00;99262.48;109621;1251;58974;-69
2023/09/10 01:19:04;;;;;;;50.80;45.80;;;;;;;15.85;100.00;99258.81;109590;1251;59007;-69
2023/09/10 01:21:55;;;;;;;51.50;46.60;;;;;;;15.81;100.00;99261.42;109592;1251;64821;-69
2023/09/10 01:24:55;;;;;;;46.70;42.10;;;;;;;15.77;100.00;99259.61;109638;1250;58989;-69
2023/09/10 01:27:22;;;;;;;50.80;45.70;;;;;;;15.73;100.00;99258.35;109612;1251;62865;-68
2023/09/10 01:29:48;;;;;;;45.90;41.40;;;;;;;15.69;100.00;99258.64;109593;1250;58931;-69
2023/09/10 01:32:26;;;;;;;49.30;44.60;;;;;;;15.66;100.00;99259.25;109625;1251;58950;-68
2023/09/10 01:35:09;;;;;;;49.60;44.50;;;;;;;15.63;100.00;99261.48;109616;1250;66024;-68
2023/09/10 01:38:26;;;;;;;54.50;48.90;;;;;;;15.60;100.00;99262.23;109617;1251;60769;-68
2023/09/10 01:41:00;;;;;;;50.00;44.90;;;;;;;15.56;100.00;99265.27;108960;1259;64063;-68
2023/09/10 01:43:27;;;;;;;49.80;44.80;;;;;;;15.53;100.00;99267.71;108890;1260;59092;-68
2023/09/10 01:45:53;;;;;;;52.80;47.70;;;;;;;15.49;100.00;99268.87;108904;1259;60221;-67
2023/09/10 01:48:20;;;;;;;53.20;47.60;;;;;;;15.49;100.00;99274.32;108943;1260;59306;-68
2023/09/10 01:50:46;;;;;;;52.90;47.70;;;;;;;15.47;100.00;99273.76;108972;1260;60155;-67
2023/09/10 01:53:16;;;;;;;53.30;48.10;;;;;;;15.45;100.00;99274.98;108946;1260;64050;-68
2023/09/10 01:55:43;;;;;;;52.00;46.80;;;;;;;15.43;100.00;99274.10;108918;1260;59306;-68
2023/09/10 01:58:13;;;;;;;50.30;45.30;;;;;;;15.40;100.00;99270.41;108929;1262;59309;-68
2023/09/10 02:00:40;;;;;;;48.90;44.10;;;;;;;15.38;100.00;99267.88;108978;1260;66097;-68
2023/09/10 02:03:06;;;;;;;51.60;46.30;;;;;;;15.35;100.00;99269.35;108856;1260;60056;-68
2023/09/10 02:05:33;;;;;;;51.20;46.30;;;;;;;15.32;100.00;99267.96;108932;1259;63953;-69
2023/09/10 02:08:00;;;;;;;55.80;50.00;;;;;;;15.30;100.00;99269.75;108957;1259;59001;-69
2023/09/10 02:10:28;;;;;;;55.10;49.70;;;;;;;15.27;100.00;99264.08;108995;1259;59123;-69
2023/09/10 02:12:54;;;;;;;55.10;49.30;;;;;;;15.25;100.00;99265.17;109514;1251;65979;-69
2023/09/10 02:15:21;;;;;;;52.70;47.30;;;;;;;15.22;100.00;99263.60;109591;1250;58975;-69
2023/09/10 02:17:47;;;;;;;55.30;49.60;;;;;;;15.20;100.00;99261.30;109604;1251;59011;-69
2023/09/10 02:20:14;;;;;;;54.90;49.60;;;;;;;15.17;100.00;99266.33;109564;1252;58936;-69
2023/09/10 02:22:41;;;;;;;53.90;48.30;;;;;;;15.13;100.00;99266.98;109621;1251;58966;-69
2023/09/10 02:25:08;;;;;;;53.70;48.40;;;;;;;15.10;100.00;99266.15;109622;1251;65946;-69
2023/09/10 02:27:35;;;;;;;55.80;50.20;;;;;;;15.08;100.00;99265.30;109613;1250;59173;-69
2023/09/10 02:30:06;;;;;;;61.50;53.40;;;;;;;15.06;100.00;99267.23;109587;1250;62922;-69
2023/09/10 02:32:33;;;;;;;62.80;56.40;;;;;;;15.03;100.00;99262.83;109614;1251;59003;-69
2023/09/10 02:34:59;;;;;;;63.00;56.80;;;;;;;15.01;100.00;99262.84;109421;1251;58950;-69
2023/09/10 02:37:26;;;;;;;59.40;53.50;;;;;;;14.99;100.00;99265.86;109571;1250;59594;-69
2023/09/10 02:39:52;;;;;;;58.80;52.90;;;;;;;14.97;100.00;99267.79;109291;1250;60192;-69
2023/09/10 02:42:19;;;;;;;55.60;50.00;;;;;;;14.95;100.00;99267.05;109608;1251;64190;-69
2023/09/10 02:44:46;;;;;;;59.10;53.20;;;;;;;14.95;100.00;99269.23;109392;1251;58999;-69
2023/09/10 02:47:12;;;;;;;57.60;51.90;;;;;;;14.93;100.00;99268.77;109605;1251;58951;-69
2023/09/10 02:49:39;;;;;;;56.70;51.30;;;;;;;14.94;100.00;99269.28;109535;1251;59408;-69
2023/09/10 02:52:05;;;;;;;56.70;50.80;;;;;;;14.96;100.00;99271.85;109639;1251;59024;-69
2023/09/10 02:54:34;;;;;;;52.40;47.20;;;;;;;14.95;100.00;99274.05;109592;1251;59000;-69
2023/09/10 02:57:01;;;;;;;53.20;47.90;;;;;;;14.91;100.00;99275.25;109556;1251;59011;-69
2023/09/10 02:59:28;;;;;;;54.40;48.60;;;;;;;14.88;100.00;99276.05;109549;1251;59013;-69
2023/09/10 03:01:54;;;;;;;52.80;47.50;;;;;;;14.85;100.00;99276.21;109601;1251;65882;-69
2023/09/10 03:04:21;;;;;;;49.90;45.00;;;;;;;14.83;100.00;99271.91;109564;1251;59225;-69
2023/09/10 03:06:49;;;;;;;49.70;44.80;;;;;;;14.81;100.00;99276.98;109562;1251;63911;-69
2023/09/10 03:09:16;;;;;;;51.50;46.40;;;;;;;14.76;100.00;99274.83;109532;1251;58947;-69
2023/09/10 03:11:44;;;;;;;49.80;45.20;;;;;;;14.72;100.00;99271.21;109587;1251;59325;-69
2023/09/10 03:14:11;;;;;;;55.00;49.80;;;;;;;14.68;100.00;99270.23;109556;1251;64840;-69
2023/09/10 03:16:38;;;;;;;51.50;46.50;;;;;;;14.65;100.00;99269.80;109526;1251;60100;-69
2023/09/10 03:19:06;;;;;;;57.50;51.80;;;;;;;14.61;100.00;99268.36;109588;1251;63759;-68
2023/09/10 03:21:32;;;;;;;53.70;48.40;;;;;;;14.57;100.00;99265.79;109577;1251;58945;-68
2023/09/10 03:23:59;;;;;;;48.70;44.00;;;;;;;14.54;100.00;99264.78;109568;1251;58944;-68
2023/09/10 03:26:25;;;;;;;47.90;43.20;;;;;;;14.51;100.00;99264.40;109292;1251;65722;-68
2023/09/10 03:28:52;;;;;;;51.10;45.90;;;;;;;14.49;100.00;99265.50;109609;1254;60213;-69
2023/09/10 03:31:18;;;;;;;49.60;44.70;;;;;;;14.47;100.00;99263.83;109396;1251;63901;-68
2023/09/10 03:33:45;;;;;;;48.00;43.60;;;;;;;14.47;100.00;99262.05;109626;1251;59274;-68
2023/09/10 03:36:12;;;;;;;49.00;44.10;;;;;;;14.46;100.00;99259.66;109628;1251;58960;-69
2023/09/10 03:38:38;;;;;;;47.50;42.90;;;;;;;14.44;100.00;99260.86;109624;1251;64825;-68
2023/09/10 03:41:05;;;;;;;46.10;41.70;;;;;;;14.43;100.00;99262.05;109599;1251;61402;-69
2023/09/10 03:43:32;;;;;;;46.00;41.60;;;;;;;14.40;100.00;99260.85;109304;1251;64053;-68
2023/09/10 03:45:58;;;;;;;37.30;33.80;;;;;;;14.36;100.00;99262.22;109581;1251;59126;-68
2023/09/10 03:48:25;;;;;;;42.90;38.60;;;;;;;14.33;100.00;99263.03;109637;1250;58944;-68
2023/09/10 03:50:51;;;;;;;43.10;38.90;;;;;;;14.29;100.00;99261.33;109601;1251;64857;-68
2023/09/10 03:53:18;;;;;;;44.80;40.60;;;;;;;14.26;100.00;99263.15;109574;1251;60223;-68
2023/09/10 03:55:44;;;;;;;37.70;34.30;;;;;;;14.23;100.00;99265.88;109559;1251;65093;-68
2023/09/10 03:58:11;;;;;;;41.20;37.40;;;;;;;14.19;100.00;99265.86;109582;1251;59125;-68
2023/09/10 04:00:37;;;;;;;39.10;35.40;;;;;;;14.15;100.00;99269.38;109642;1251;59040;-68
2023/09/10 04:03:04;;;;;;;41.50;37.40;;;;;;;14.12;100.00;99270.14;109569;1250;66048;-68
2023/09/10 04:05:31;;;;;;;42.40;38.20;;;;;;;14.09;100.00;99268.96;109602;1251;59084;-68
2023/09/10 04:07:58;;;;;;;41.70;37.70;;;;;;;14.06;100.00;99266.02;109579;1251;64017;-68
2023/09/10 04:10:26;;;;;;;46.90;42.20;;;;;;;14.02;100.00;99263.96;109610;1251;58936;-68
2023/09/10 04:12:53;;;;;;;43.40;39.10;;;;;;;14.01;100.00;99263.52;109621;1251;59040;-69
2023/09/10 04:15:20;;;;;;;45.50;40.50;;;;;;;14.01;100.00;99265.65;109598;1250;66742;-68
2023/09/10 04:17:46;;;;;;;90.40;49.20;;;;;;;14.01;100.00;99267.27;109680;1251;59006;-68
2023/09/10 04:20:13;;;;;;;83.90;46.90;;;;;;;14.05;100.00;99266.26;109646;1251;64051;-68
2023/09/10 04:22:39;;;;;;;55.70;49.70;;;;;;;14.09;100.00;99265.59;109249;1251;58968;-68
2023/09/10 04:25:07;;;;;;;54.30;48.60;;;;;;;14.13;100.00;99266.14;109624;1251;58969;-69
2023/09/10 04:27:33;;;;;;;52.30;46.70;;;;;;;14.15;100.00;99263.30;109629;1251;64824;-68
2023/09/10 04:30:00;;;;;;;53.40;46.50;;;;;;;14.17;100.00;99264.98;109636;1250;58908;-68
2023/09/10 04:32:26;;;;;;;54.40;47.20;;;;;;;14.17;100.00;99265.11;109357;1251;63732;-68
2023/09/10 04:34:53;;;;;;;56.20;45.40;;;;;;;14.20;100.00;99265.26;109638;1251;59005;-68
2023/09/10 04:37:20;;;;;;;66.80;44.50;;;;;;;14.23;100.00;99264.28;109300;1251;59325;-69
2023/09/10 04:39:46;;;;;;;55.70;44.40;;;;;;;14.24;100.00;99264.92;109648;1250;64910;-68
2023/09/10 04:42:13;;;;;;;51.00;45.70;;;;;;;14.26;100.00;99265.52;109600;1251;59992;-69
2023/09/10 04:44:39;;;;;;;50.50;43.70;;;;;;;14.29;100.00;99271.86;109599;1251;59066;-69
2023/09/10 04:47:06;;;;;;;46.50;42.30;;;;;;;14.32;100.00;99276.11;109616;1250;59020;-69
2023/09/10 04:49:32;;;;;;;47.80;43.60;;;;;;;14.36;100.00;99277.83;109638;1250;58973;-69
2023/09/10 04:51:59;;;;;;;46.50;42.40;;;;;;;14.42;100.00;99277.66;109616;1251;66021;-69
2023/09/10 04:54:25;;;;;;;43.70;39.60;;;;;;;14.50;100.00;99279.02;109631;1251;58973;-69
2023/09/10 04:56:53;;;;;;;44.30;40.30;;;;;;;14.61;100.00;99274.61;109614;1250;62858;-69
2023/09/10 04:59:20;;;;;;;46.40;41.80;;;;;;;14.74;100.00;99276.45;109599;1251;58963;-69
2023/09/10 05:01:47;;;;;;;40.60;37.10;;;;;;;14.89;100.00;99274.88;109638;1251;59197;-69
2023/09/10 05:04:14;;;;;;;39.30;36.10;;;;;;;15.07;100.00;99272.39;109638;1250;65709;-69
2023/09/10 05:06:40;;;;;;;39.20;35.90;;;;;;;15.27;100.00;99271.27;109413;1250;59064;-69
2023/09/10 05:09:08;;;;;;;39.20;36.00;;;;;;;15.43;100.00;99270.16;109624;1250;59070;-69
2023/09/10 05:11:34;;;;;;;37.30;34.30;;;;;;;15.58;100.00;99270.80;109602;1250;58986;-69
2023/09/10 05:14:01;;;;;;;37.30;34.30;;;;;;;15.84;100.00;99271.42;109622;1250;59160;-69
2023/09/10 05:16:27;;;;;;;34.20;31.40;;;;;;;16.10;100.00;99268.85;109357;1251;59603;-69
2023/09/10 05:18:54;;;;;;;35.40;32.60;;;;;;;16.38;100.00;99270.87;109606;1250;58994;-69
2023/09/10 05:21:21;;;;;;;32.70;30.10;;;;;;;16.70;100.00;99272.95;109574;1250;62828;-69
2023/09/10 05:23:47;;;;;;;32.80;29.70;;;;;;;17.00;100.00;99271.06;109626;1250;58986;-69
2023/09/10 05:26:14;;;;;;;29.90;27.40;;;;;;;17.28;100.00;99271.98;109613;1250;59003;-69
2023/09/10 05:28:40;;;;;;;29.10;26.70;;;;;;;17.56;100.00;99273.39;109591;1250;66018;-69
2023/09/10 05:31:08;;;;;;;28.90;26.60;;;;;;;17.85;100.00;99278.59;109613;1250;60100;-69
2023/09/10 05:33:35;;;;;;;27.40;25.10;;;;;;;18.14;100.00;99278.96;109593;1250;62493;-70
2023/09/10 05:36:02;;;;;;;25.80;23.80;;;;;;;18.43;100.00;99283.05;109360;1251;59001;-70
2023/09/10 05:38:30;;;;;;;25.10;23.10;;;;;;;18.71;100.00;99286.14;109376;1251;59321;-70
2023/09/10 05:41:02;;;;;;;23.70;21.70;;;;;;;18.95;100.00;99288.55;109609;1250;64797;-70
2023/09/10 05:43:29;;;;;;;22.10;20.40;;;;;;;19.20;100.00;99286.86;109400;1251;59161;-69
2023/09/10 05:45:57;;;;;;;20.60;19.00;;;;;;;19.46;100.00;99290.36;109624;1250;62921;-70
2023/09/10 05:48:24;;;;;;;19.70;18.10;;;;;;;19.79;100.00;99289.67;109608;1250;58922;-70
2023/09/10 05:50:55;;;;;;;20.00;18.30;;;;;;;20.07;100.00;99286.09;109622;1251;59724;-70
2023/09/10 05:53:22;;;;;;;19.30;17.60;;;;;;;20.35;100.00;99287.35;109608;1250;64804;-70
2023/09/10 05:55:49;;;;;;;19.70;18.00;;;;;;;20.64;100.00;99288.08;109301;1251;60106;-69
2023/09/10 05:58:16;;;;;;;18.90;17.40;;;;;;;20.95;100.00;99287.91;109624;1250;64014;-69
2023/09/10 06:00:43;;;;;;;18.40;17.10;;;;;;;21.18;100.00;99287.38;109604;1250;58989;-70
2023/09/10 06:03:09;;;;;;;20.50;18.80;;;;;;;21.29;100.00;99289.28;109667;1250;58951;-70
2023/09/10 06:05:36;;;;;;;19.70;18.20;;;;;;;21.40;100.00;99288.09;109644;1250;65669;-70
2023/09/10 06:08:03;;;;;;;20.50;18.90;;;;;;;21.53;100.00;99288.77;109622;1250;58927;-70
2023/09/10 06:10:29;;;;;;;23.10;21.20;;;;;;;21.65;100.00;99287.48;109632;1250;64089;-70
2023/09/10 06:12:56;;;;;;;23.60;21.50;;;;;;;21.79;100.00;99286.96;109574;1251;58950;-70
2023/09/10 06:15:23;;;;;;;24.20;22.00;;;;;;;21.92;100.00;99283.65;109627;1250;59146;-70
2023/09/10 06:17:50;;;;;;;24.20;21.90;;;;;;;21.98;100.00;99280.84;109609;1250;64839;-69
2023/09/10 06:20:16;;;;;;;23.70;21.50;;;;;;;22.01;100.00;99283.89;109620;1251;58969;-69
2023/09/10 06:22:43;;;;;;;23.20;21.20;;;;;;;22.04;100.00;99282.94;109599;1250;64525;-69
2023/09/10 06:25:09;;;;;;;22.30;20.40;;;;;;;21.99;100.00;99283.80;109631;1251;59582;-69
2023/09/10 06:27:36;;;;;;;24.10;21.90;;;;;;;21.88;100.00;99278.73;109614;1250;59634;-69
2023/09/10 06:30:03;;;;;;;24.60;22.40;;;;;;;21.71;100.00;99278.43;109595;1251;66023;-69
2023/09/10 06:32:29;;;;;;;24.80;22.50;;;;;;;21.54;100.00;99279.98;109621;1250;59848;-69
2023/09/10 06:34:56;;;;;;;23.70;21.60;;;;;;;21.39;100.00;99278.81;109639;1251;59099;-69
2023/09/10 06:37:23;;;;;;;23.50;21.40;;;;;;;21.25;100.00;99282.15;109553;1250;59436;-69
2023/09/10 06:39:50;;;;;;;25.30;23.10;;;;;;;21.13;100.00;99281.42;109295;1251;59151;-69
2023/09/10 06:42:17;;;;;;;24.90;22.60;;;;;;;21.06;100.00;99286.30;109633;1250;65880;-69
2023/09/10 06:44:43;;;;;;;25.80;23.50;;;;;;;20.99;100.00;99285.57;109610;1250;60114;-69
2023/09/10 06:47:11;;;;;;;25.30;23.00;;;;;;;20.91;100.00;99286.64;109587;1251;64177;-69
2023/09/10 06:49:37;;;;;;;25.10;22.80;;;;;;;20.87;100.00;99286.39;109620;1250;59079;-69
2023/09/10 06:52:05;;;;;;;24.10;22.00;;;;;;;20.83;100.00;99286.54;109486;1250;169639;-69
2023/09/10 06:54:32;;;;;;;23.90;21.70;;;;;;;20.86;100.00;99285.77;109634;1250;66065;-69
2023/09/10 06:57:00;;;;;;;23.00;20.90;;;;;;;20.87;100.00;99287.30;109606;1250;58938;-69
2023/09/10 06:59:28;;;;;;;22.80;20.70;;;;;;;20.87;100.00;99292.38;109386;1251;64078;-69
2023/09/10 07:01:54;;;;;;;23.20;21.10;;;;;;;20.88;100.00;99291.16;109596;1250;59010;-69
2023/09/10 07:04:23;;;;;;;21.30;19.40;;;;;;;20.94;100.00;99293.06;109613;1250;58869;-70
2023/09/10 07:06:51;;;;;;;22.30;20.30;;;;;;;21.00;100.00;99297.45;109617;1250;66065;-69
2023/09/10 07:09:22;;;;;;;20.00;18.30;;;;;;;21.06;100.00;99297.21;109624;1250;59905;-69
2023/09/10 07:11:50;;;;;;;22.00;20.00;;;;;;;21.10;100.00;99297.88;109596;1250;64163;-69
2023/09/10 07:14:18;;;;;;;19.80;17.90;;;;;;;21.19;100.00;99297.20;109594;1250;59206;-70
2023/09/10 07:16:45;;;;;;;17.90;16.30;;;;;;;21.33;100.00;99295.63;109627;1250;58934;-69
2023/09/10 07:19:12;;;;;;;18.00;16.40;;;;;;;21.44;100.00;99298.02;109587;1250;66215;-69
2023/09/10 07:21:39;;;;;;;18.00;16.50;;;;;;;21.52;100.00;99297.52;109574;1250;60110;-70
2023/09/10 07:24:06;;;;;;;18.90;17.20;;;;;;;21.61;100.00;99301.48;109366;1251;63727;-69
2023/09/10 07:26:33;;;;;;;18.30;16.70;;;;;;;21.70;100.00;99295.98;109571;1250;59033;-69
2023/09/10 07:29:00;;;;;;;18.10;16.50;;;;;;;21.74;100.00;99298.57;109603;1250;58877;-70
2023/09/10 07:31:27;;;;;;;17.90;16.30;;;;;;;21.81;100.00;99299.20;109586;1250;66133;-69
2023/09/10 07:33:53;;;;;;;16.90;15.20;;;;;;;21.90;100.00;99297.52;109577;1250;58983;-69
2023/09/10 07:36:20;;;;;;;17.40;15.30;;;;;;;22.03;100.00;99297.21;109573;1250;59141;-69
2023/09/10 07:38:48;;;;;;;16.40;14.80;;;;;;;22.13;100.00;99301.70;109551;1250;58954;-69
2023/09/10 07:41:14;;;;;;;16.80;15.30;;;;;;;22.19;100.00;99304.92;109559;1250;58960;-69
2023/09/10 07:43:41;;;;;;;17.30;15.60;;;;;;;22.24;100.00;99301.64;109587;1250;64483;-69
2023/09/10 07:46:08;;;;;;;16.60;15.10;;;;;;;22.30;100.00;99304.95;109561;1251;60191;-69
2023/09/10 07:48:35;;;;;;;15.50;14.10;;;;;;;22.36;100.00;99300.30;109598;1250;64055;-69
2023/09/10 07:51:02;;;;;;;15.50;14.00;;;;;;;22.41;100.00;99295.17;109591;1250;59034;-69
2023/09/10 07:53:29;;;;;;;15.90;14.50;;;;;;;22.47;100.00;99295.27;109567;1250;58855;-69
2023/09/10 07:55:56;;;;;;;16.20;14.40;;;;;;;22.54;100.00;99293.23;109609;1250;66175;-69
2023/09/10 07:58:22;;;;;;;14.90;13.60;;;;;;;22.62;100.00;99293.61;109587;1250;59838;-69
2023/09/10 08:00:53;;;;;;;15.80;14.40;;;;;;;22.69;100.00;99293.02;109572;1250;63866;-69
2023/09/10 08:03:20;;;;;;;14.90;13.50;;;;;;;22.81;100.00;99290.76;109559;1250;59026;-69
2023/09/10 08:05:47;;;;;;;14.80;13.60;;;;;;;22.91;100.00;99289.77;109588;1250;59036;-69
2023/09/10 08:08:13;;;;;;;15.20;13.90;;;;;;;22.99;100.00;99291.24;109639;1250;66150;-69
2023/09/10 08:10:43;;;;;;;15.90;14.50;;;;;;;23.12;100.00;99292.96;109591;1250;59096;-69
2023/09/10 08:13:12;;;;;;;16.60;15.10;;;;;;;23.22;100.00;99292.88;109595;1250;62887;-69
2023/09/10 08:15:40;;;;;;;15.60;14.30;;;;;;;23.26;100.00;99295.83;109578;1250;58979;-69
2023/09/10 08:18:10;;;;;;;16.10;14.80;;;;;;;23.31;100.00;99297.77;109604;1250;58892;-69
2023/09/10 08:20:39;;;;;;;15.70;14.20;;;;;;;23.38;100.00;99297.42;109634;1250;64520;-70
2023/09/10 08:23:07;;;;;;;16.10;14.60;;;;;;;23.46;100.00;99297.29;109643;1250;60238;-70
2023/09/10 08:25:34;;;;;;;16.80;15.30;;;;;;;23.54;100.00;99295.75;109579;1250;63790;-70
2023/09/10 08:28:01;;;;;;;15.60;14.30;;;;;;;23.63;100.00;99295.31;109589;1250;58994;-69
2023/09/10 08:30:28;;;;;;;16.00;14.60;;;;;;;23.71;100.00;99298.59;109590;1250;58851;-69
2023/09/10 08:32:54;;;;;;;16.00;14.60;;;;;;;23.78;100.00;99294.44;109599;1250;66062;-70
2023/09/10 08:35:22;;;;;;;14.30;13.20;;;;;;;23.86;100.00;99299.08;109631;1250;60143;-69
2023/09/10 08:37:49;;;;;;;15.30;13.90;;;;;;;23.95;100.00;99301.41;109538;1250;62530;-69
2023/09/10 08:40:16;;;;;;;15.40;14.00;;;;;;;24.03;100.00;99299.64;109578;1250;58932;-69
2023/09/10 08:43:04;;;;;;;15.20;13.80;;;;;;;24.12;100.00;99301.64;109575;1250;59149;-69
2023/09/10 08:45:30;;;;;;;14.10;12.70;;;;;;;24.23;100.00;99302.95;109396;1250;64958;-69
2023/09/10 08:48:00;;;;;;;13.50;12.30;;;;;;;24.32;100.00;99303.25;109653;1250;60105;-69
2023/09/10 08:50:27;;;;;;;13.90;12.70;;;;;;;24.42;100.00;99303.34;109583;1250;64216;-69
2023/09/10 08:52:57;;;;;;;13.50;12.30;;;;;;;24.53;100.00;99301.22;109578;1250;59287;-69
2023/09/10 08:55:25;;;;;;;11.80;10.60;;;;;;;24.62;100.00;99299.52;109336;1251;58987;-69
2023/09/10 08:57:54;;;;;;;11.90;10.90;;;;;;;24.67;100.00;99298.73;109596;1250;66026;-69
2023/09/10 09:00:22;;;;;;;11.10;10.00;;;;;;;24.73;100.00;99298.90;109644;1250;60108;-69
2023/09/10 09:02:49;;;;;;;11.30;10.40;;;;;;;24.79;100.00;99299.69;109578;1250;63939;-69
2023/09/10 09:05:16;;;;;;;10.80;9.80;;;;;;;24.83;100.00;99298.99;109591;1250;58992;-69
2023/09/10 09:07:46;;;;;;;11.70;10.50;;;;;;;24.90;100.00;99300.54;109607;1250;61461;-70
2023/09/10 09:10:18;;;;;;;10.90;9.90;;;;;;;25.00;100.00;99301.16;109665;1250;64591;-70
2023/09/10 09:12:46;;;;;;;12.20;11.10;;;;;;;25.13;100.00;99298.26;109597;1250;61099;-69
2023/09/10 09:15:13;;;;;;;10.60;9.60;;;;;;;25.25;100.00;99294.66;109609;1250;64036;-69
2023/09/10 09:17:41;;;;;;;9.60;8.80;;;;;;;25.33;100.00;99294.85;109630;1250;59049;-69
2023/09/10 09:20:11;;;;;;;9.70;8.90;;;;;;;25.41;100.00;99294.27;109614;1250;58899;-69
2023/09/10 09:22:45;;;;;;;9.40;8.60;;;;;;;25.54;100.00;99295.48;109592;1250;65762;-69
2023/09/10 09:25:12;;;;;;;9.80;9.10;;;;;;;25.68;100.00;99297.37;109177;1251;59178;-70
2023/09/10 09:27:39;;;;;;;9.80;8.90;;;;;;;25.77;100.00;99299.38;109625;1250;63337;-70
2023/09/10 09:30:06;;;;;;;10.20;9.30;;;;;;;25.85;100.00;99298.65;109591;1250;58996;-70
2023/09/10 09:32:35;;;;;;;8.50;7.90;;;;;;;25.93;100.00;99291.79;109626;1250;58851;-69
2023/09/10 09:35:03;;;;;;;11.20;8.70;;;;;;;26.01;100.00;99292.88;109642;1250;64936;-69
2023/09/10 09:37:32;;;;;;;9.70;8.70;;;;;;;26.11;100.00;99290.83;109607;1250;59985;-69
2023/09/10 09:40:11;;;;;;;9.50;8.70;;;;;;;26.16;100.00;99288.51;109535;1251;63374;-69
2023/09/10 09:42:38;;;;;;;10.10;9.20;;;;;;;26.26;100.00;99293.05;109314;1251;59002;-69
2023/09/10 09:45:05;;;;;;;9.10;8.40;;;;;;;26.37;100.00;99288.70;109625;1250;58951;-69
2023/09/10 09:47:32;;;;;;;9.60;8.70;;;;;;;26.51;100.00;99286.05;109655;1250;64506;-69
2023/09/10 09:49:59;;;;;;;8.70;8.00;;;;;;;26.62;100.00;99283.80;109608;1250;59050;-69
2023/09/10 09:52:25;;;;;;;8.20;7.50;;;;;;;26.68;100.00;99285.02;109589;1250;62496;-69
2023/09/10 09:54:52;;;;;;;8.90;8.20;;;;;;;26.67;100.00;99286.06;109631;1250;59037;-69
2023/09/10 09:57:19;;;;;;;7.80;7.00;;;;;;;26.70;100.00;99285.15;109637;1250;58812;-69
2023/09/10 09:59:48;;;;;;;8.10;7.10;;;;;;;26.75;100.00;99280.77;109624;1250;65694;-69
2023/09/10 10:02:17;;;;;;;7.30;6.70;;;;;;;26.82;100.00;99275.09;109620;1250;60258;-70
2023/09/10 10:04:44;;;;;;;7.40;6.70;;;;;;;26.91;100.00;99271.66;109645;1250;62736;-69
2023/09/10 10:07:12;;;;;;;9.70;7.00;;;;;;;26.99;100.00;99270.09;109605;1250;58869;-69
2023/09/10 10:09:41;;;;;;;8.10;7.00;;;;;;;27.03;100.00;99269.35;109635;1250;58864;-70
2023/09/10 10:12:08;;;;;;;7.00;6.20;;;;;;;27.09;100.00;99268.00;109295;1250;66074;-69
2023/09/10 10:14:35;;;;;;;7.20;6.40;;;;;;;27.13;100.00;99263.10;109631;1250;60154;-69
2023/09/10 10:17:04;;;;;;;7.30;6.70;;;;;;;27.20;100.00;99263.79;109570;1251;62971;-69
2023/09/10 10:19:32;;;;;;;7.00;6.30;;;;;;;27.32;100.00;99255.77;109324;1250;59108;-70
2023/09/10 10:22:00;;;;;;;7.10;6.50;;;;;;;27.40;100.00;99251.02;109319;1250;58946;-69
2023/09/10 10:24:27;;;;;;;7.10;6.30;;;;;;;27.43;100.00;99247.88;109639;1250;66106;-70
2023/09/10 10:26:54;;;;;;;7.20;6.50;;;;;;;27.48;100.00;99246.59;109615;1250;60038;-70
2023/09/10 10:29:22;;;;;;;7.90;6.20;;;;;;;27.54;100.00;99241.23;109294;1250;63765;-70
2023/09/10 10:32:00;;;;;;;7.40;5.80;;;;;;;27.56;100.00;99236.52;109613;1250;58997;-70
2023/09/10 10:34:35;;;;;;;6.50;5.90;;;;;;;27.57;100.00;99233.84;109654;1250;59112;-70
2023/09/10 10:37:11;;;;;;;7.00;6.10;;;;;;;27.63;100.00;99233.48;109630;1250;66072;-70
2023/09/10 10:39:57;;;;;;;6.50;6.00;;;;;;;27.66;100.00;99229.63;109636;1250;59861;-70
2023/09/10 10:42:40;;;;;;;6.10;5.50;;;;;;;27.72;100.00;99227.48;109614;1250;62990;-70
2023/09/10 10:45:07;;;;;;;6.80;5.70;;;;;;;27.78;100.00;99221.93;109629;1250;59015;-70
2023/09/10 10:47:38;;;;;;;6.40;5.80;;;;;;;27.82;100.00;99221.24;109348;1251;58937;-70
2023/09/10 10:50:08;;;;;;;6.10;5.50;;;;;;;27.83;100.00;99216.41;109645;1250;64536;-70
2023/09/10 10:52:41;;;;;;;5.80;5.30;;;;;;;27.80;100.00;99218.66;109621;1250;60069;-70
2023/09/10 10:55:09;;;;;;;6.20;5.00;;;;;;;27.77;100.00;99213.67;109586;1251;63883;-70
2023/09/10 10:57:37;;;;;;;5.20;4.80;;;;;;;27.83;100.00;99212.55;109594;1250;58873;-70
2023/09/10 11:00:07;;;;;;;5.50;5.00;;;;;;;27.88;100.00;99211.69;109458;1251;59017;-69
2023/09/10 11:02:35;;;;;;;5.40;4.90;;;;;;;27.93;100.00;99212.70;109610;1250;66061;-69
2023/09/10 11:05:06;;;;;;;5.00;4.50;;;;;;;27.95;100.00;99208.33;109355;1251;60103;-69
2023/09/10 11:07:33;;;;;;;7.50;4.40;;;;;;;27.98;100.00;99208.71;109642;1250;64100;-69
2023/09/10 11:10:25;;;;;;;8.00;6.10;;;;;;;28.03;100.00;99204.54;109600;1250;58945;-68